createdAt,value
2023-04-26T00:00:57.950Z,37.02
2023-04-26T00:01:58.016Z,37.04
2023-04-26T00:02:58.195Z,37.05
2023-04-26T00:03:58.330Z,37.06
2023-04-26T00:04:58.576Z,37.05
2023-04-26T00:05:58.377Z,37.07
2023-04-26T00:06:58.444Z,37.08
2023-04-26T00:07:58.583Z,37.08
2023-04-26T00:08:58.552Z,37.07
2023-04-26T00:09:58.651Z,37.10
2023-04-26T00:10:58.737Z,37.08
2023-04-26T00:11:58.805Z,37.08
2023-04-26T00:12:58.926Z,37.08
2023-04-26T00:13:58.958Z,37.07
2023-04-26T00:14:59.032Z,37.08
2023-04-26T00:15:59.175Z,37.13
2023-04-26T00:16:59.200Z,37.10
2023-04-26T00:17:59.323Z,37.10
2023-04-26T00:18:59.378Z,37.10
2023-04-26T00:19:59.458Z,37.08
2023-04-26T00:20:59.562Z,37.10
2023-04-26T00:22:05.618Z,37.09
2023-04-26T00:22:59.705Z,37.11
2023-04-26T00:23:59.791Z,37.11
2023-04-26T00:24:59.877Z,37.13
2023-04-26T00:25:59.941Z,37.10
2023-04-26T00:27:00.006Z,37.11
2023-04-26T00:28:00.107Z,37.12
2023-04-26T00:29:00.184Z,37.11
2023-04-26T00:30:00.260Z,37.13
2023-04-26T00:31:00.339Z,37.14
2023-04-26T00:32:00.454Z,37.14
2023-04-26T00:33:00.498Z,37.14
2023-04-26T00:34:00.566Z,37.16
2023-04-26T00:35:00.656Z,37.14
2023-04-26T00:36:00.740Z,37.14
2023-04-26T00:37:00.832Z,37.16
2023-04-26T00:38:00.902Z,37.14
2023-04-26T00:39:00.955Z,37.15
2023-04-26T00:40:01.046Z,37.16
2023-04-26T00:41:01.117Z,37.15
2023-04-26T00:42:01.197Z,37.17
2023-04-26T00:43:01.268Z,37.15
2023-04-26T00:44:01.360Z,37.14
2023-04-26T00:45:01.433Z,37.14
2023-04-26T00:46:01.617Z,37.15
2023-04-26T00:47:01.596Z,37.16
2023-04-26T00:48:01.692Z,37.17
2023-04-26T00:49:01.761Z,37.15
2023-04-26T00:50:01.849Z,37.16
2023-04-26T00:51:01.904Z,37.16
2023-04-26T00:52:02.019Z,37.17
2023-04-26T00:53:08.032Z,37.16
2023-04-26T00:54:02.133Z,37.18
2023-04-26T00:55:02.214Z,37.19
2023-04-26T00:56:02.286Z,37.19
2023-04-26T00:57:02.367Z,37.19
2023-04-26T00:58:02.451Z,37.19
2023-04-26T00:59:02.550Z,37.18
2023-04-26T01:00:02.602Z,37.20
2023-04-26T01:01:02.812Z,37.18
2023-04-26T01:02:02.839Z,37.19
2023-04-26T01:03:02.956Z,37.18
2023-04-26T01:04:03.179Z,37.20
2023-04-26T01:05:03.042Z,37.18
2023-04-26T01:06:03.132Z,37.18
2023-04-26T01:07:03.202Z,37.18
2023-04-26T01:08:03.274Z,37.18
2023-04-26T01:09:03.349Z,37.19
2023-04-26T01:10:03.682Z,37.21
2023-04-26T01:11:03.506Z,37.20
2023-04-26T01:12:03.570Z,37.21
2023-04-26T01:13:03.644Z,37.19
2023-04-26T01:14:03.722Z,37.19
2023-04-26T01:15:03.796Z,37.20
2023-04-26T01:16:03.887Z,37.22
2023-04-26T01:17:03.975Z,37.19
2023-04-26T01:18:04.034Z,37.22
2023-04-26T01:19:04.113Z,37.22
2023-04-26T01:20:04.165Z,37.23
2023-04-26T01:21:04.269Z,37.21
2023-04-26T01:22:04.305Z,37.23
2023-04-26T01:23:04.381Z,37.22
2023-04-26T01:24:10.433Z,37.22
2023-04-26T01:25:04.572Z,37.25
2023-04-26T01:26:04.622Z,37.27
2023-04-26T01:27:04.758Z,37.26
2023-04-26T01:28:04.761Z,37.25
2023-04-26T01:29:04.843Z,37.25
2023-04-26T01:30:04.908Z,37.26
2023-04-26T01:31:05.016Z,37.28
2023-04-26T01:32:05.078Z,37.26
2023-04-26T01:33:05.180Z,37.26
2023-04-26T01:34:05.198Z,37.26
2023-04-26T01:35:05.260Z,37.26
2023-04-26T01:36:05.339Z,37.29
2023-04-26T01:37:05.406Z,37.31
2023-04-26T01:38:05.514Z,37.28
2023-04-26T01:39:05.588Z,37.28
2023-04-26T01:40:05.659Z,37.29
2023-04-26T01:41:05.728Z,37.29
2023-04-26T01:42:05.788Z,37.31
2023-04-26T01:43:05.891Z,37.28
2023-04-26T01:44:06.015Z,37.33
2023-04-26T01:45:06.063Z,37.31
2023-04-26T01:46:06.163Z,37.30
2023-04-26T01:47:06.236Z,37.31
2023-04-26T01:48:06.355Z,37.30
2023-04-26T01:49:06.407Z,37.30
2023-04-26T01:50:06.540Z,37.31
2023-04-26T01:51:06.572Z,37.29
2023-04-26T01:52:06.666Z,37.32
2023-04-26T01:53:06.749Z,37.31
2023-04-26T01:54:06.831Z,37.32
2023-04-26T01:55:13.209Z,37.33
2023-04-26T01:56:06.988Z,37.36
2023-04-26T01:57:07.080Z,37.34
2023-04-26T01:58:08.083Z,37.34
2023-04-26T01:59:07.210Z,37.35
2023-04-26T02:00:07.288Z,37.35
2023-04-26T02:01:07.407Z,37.32
2023-04-26T02:02:07.506Z,37.34
2023-04-26T02:03:07.752Z,37.32
2023-04-26T02:04:07.620Z,37.34
2023-04-26T02:05:07.718Z,37.34
2023-04-26T02:06:07.796Z,37.33
2023-04-26T02:07:07.920Z,37.33
2023-04-26T02:08:07.968Z,37.35
2023-04-26T02:09:08.021Z,37.36
2023-04-26T02:10:08.103Z,37.36
2023-04-26T02:11:08.163Z,37.36
2023-04-26T02:12:08.269Z,37.39
2023-04-26T02:13:08.316Z,37.38
2023-04-26T02:14:08.392Z,37.38
2023-04-26T02:15:08.449Z,37.39
2023-04-26T02:16:08.566Z,37.38
2023-04-26T02:17:08.633Z,37.40
2023-04-26T02:18:08.746Z,37.39
2023-04-26T02:19:08.802Z,37.39
2023-04-26T02:20:08.881Z,37.39
2023-04-26T02:21:08.956Z,37.39
2023-04-26T02:22:09.033Z,37.39
2023-04-26T02:23:09.134Z,37.39
2023-04-26T02:24:09.170Z,37.41
2023-04-26T02:25:09.230Z,37.39
2023-04-26T02:26:15.651Z,37.39
2023-04-26T02:27:09.416Z,37.43
2023-04-26T02:28:09.513Z,37.40
2023-04-26T02:29:09.601Z,37.40
2023-04-26T02:30:09.667Z,37.40
2023-04-26T02:31:09.823Z,37.40
2023-04-26T02:32:09.812Z,37.39
2023-04-26T02:33:09.905Z,37.40
2023-04-26T02:34:10.013Z,37.42
2023-04-26T02:35:10.047Z,37.42
2023-04-26T02:36:10.149Z,37.41
2023-04-26T02:37:10.221Z,37.41
2023-04-26T02:38:10.308Z,37.43
2023-04-26T02:39:10.377Z,37.42
2023-04-26T02:40:10.512Z,37.43
2023-04-26T02:41:10.568Z,37.42
2023-04-26T02:42:10.660Z,37.42
2023-04-26T02:43:10.718Z,37.42
2023-04-26T02:44:10.788Z,37.45
2023-04-26T02:45:10.882Z,37.46
2023-04-26T02:46:11.076Z,37.46
2023-04-26T02:47:11.101Z,37.45
2023-04-26T02:48:11.153Z,37.44
2023-04-26T02:49:11.215Z,37.43
2023-04-26T02:50:11.301Z,37.43
2023-04-26T02:51:11.376Z,37.42
2023-04-26T02:52:11.459Z,37.46
2023-04-26T02:53:11.547Z,37.45
2023-04-26T02:54:11.604Z,37.46
2023-04-26T02:55:11.694Z,37.45
2023-04-26T02:56:11.761Z,37.46
2023-04-26T02:57:18.236Z,37.45
2023-04-26T02:58:11.935Z,37.50
2023-04-26T02:59:12.015Z,37.47
2023-04-26T03:00:12.205Z,37.47
2023-04-26T03:01:12.215Z,37.50
2023-04-26T03:02:12.398Z,37.49
2023-04-26T03:03:12.575Z,37.47
2023-04-26T03:04:12.616Z,37.49
2023-04-26T03:05:12.512Z,37.48
2023-04-26T03:06:12.582Z,37.47
2023-04-26T03:07:12.669Z,37.46
2023-04-26T03:08:12.739Z,37.47
2023-04-26T03:09:12.842Z,37.48
2023-04-26T03:10:12.911Z,37.49
2023-04-26T03:11:12.975Z,37.51
2023-04-26T03:12:13.048Z,37.49
2023-04-26T03:13:13.134Z,37.47
2023-04-26T03:14:13.224Z,37.52
2023-04-26T03:15:13.296Z,37.50
2023-04-26T03:16:13.430Z,37.50
2023-04-26T03:17:13.482Z,37.52
2023-04-26T03:18:13.566Z,37.50
2023-04-26T03:19:13.645Z,37.51
2023-04-26T03:20:13.733Z,37.51
2023-04-26T03:21:13.789Z,37.52
2023-04-26T03:22:13.865Z,37.52
2023-04-26T03:23:13.951Z,37.54
2023-04-26T03:24:14.010Z,37.55
2023-04-26T03:25:14.110Z,37.56
2023-04-26T03:26:14.180Z,37.56
2023-04-26T03:27:14.256Z,37.55
2023-04-26T03:28:20.298Z,37.54
2023-04-26T03:29:14.432Z,37.56
2023-04-26T03:30:14.485Z,37.53
2023-04-26T03:31:14.578Z,37.55
2023-04-26T03:32:14.703Z,37.53
2023-04-26T03:33:14.759Z,37.55
2023-04-26T03:34:14.847Z,37.56
2023-04-26T03:35:14.909Z,37.56
2023-04-26T03:36:15.049Z,37.55
2023-04-26T03:37:15.066Z,37.57
2023-04-26T03:38:15.143Z,37.54
2023-04-26T03:39:15.219Z,37.55
2023-04-26T03:40:15.291Z,37.55
2023-04-26T03:41:15.380Z,37.56
2023-04-26T03:42:15.468Z,37.56
2023-04-26T03:43:15.543Z,37.57
2023-04-26T03:44:15.608Z,37.56
2023-04-26T03:45:15.689Z,37.55
2023-04-26T03:46:15.781Z,37.55
2023-04-26T03:47:15.857Z,37.57
2023-04-26T03:48:15.951Z,37.56
2023-04-26T03:49:15.995Z,37.54
2023-04-26T03:50:16.069Z,37.57
2023-04-26T03:51:16.141Z,37.56
2023-04-26T03:52:16.229Z,37.55
2023-04-26T03:53:16.310Z,37.55
2023-04-26T03:54:16.405Z,37.54
2023-04-26T03:55:16.489Z,37.54
2023-04-26T03:56:16.560Z,37.56
2023-04-26T03:57:16.657Z,37.55
2023-04-26T03:58:16.748Z,37.54
2023-04-26T03:59:23.280Z,37.54
2023-04-26T04:00:16.900Z,37.57
2023-04-26T04:01:16.977Z,37.57
2023-04-26T04:02:17.223Z,37.55
2023-04-26T04:03:17.294Z,37.55
2023-04-26T04:04:17.580Z,37.56
2023-04-26T04:05:17.428Z,37.56
2023-04-26T04:06:17.349Z,37.55
2023-04-26T04:07:17.432Z,37.55
2023-04-26T04:08:17.518Z,37.55
2023-04-26T04:09:17.587Z,37.50
2023-04-26T04:10:17.683Z,37.47
2023-04-26T04:11:17.793Z,37.47
2023-04-26T04:12:17.864Z,37.45
2023-04-26T04:13:17.947Z,37.42
2023-04-26T04:14:18.020Z,37.40
2023-04-26T04:15:18.103Z,37.40
2023-04-26T04:16:18.241Z,37.37
2023-04-26T04:17:18.276Z,37.35
2023-04-26T04:18:18.356Z,37.33
2023-04-26T04:19:18.428Z,37.31
2023-04-26T04:20:18.517Z,37.32
2023-04-26T04:21:18.595Z,37.33
2023-04-26T04:22:18.702Z,37.28
2023-04-26T04:23:18.731Z,37.29
2023-04-26T04:24:18.812Z,37.26
2023-04-26T04:25:18.893Z,37.27
2023-04-26T04:26:18.974Z,37.26
2023-04-26T04:27:19.059Z,37.25
2023-04-26T04:28:19.141Z,37.24
2023-04-26T04:29:19.214Z,37.23
2023-04-26T04:30:25.256Z,37.21
2023-04-26T04:31:19.396Z,37.24
2023-04-26T04:32:19.426Z,37.22
2023-04-26T04:33:19.532Z,37.19
2023-04-26T04:34:19.598Z,37.20
2023-04-26T04:35:19.761Z,37.18
2023-04-26T04:36:19.796Z,37.18
2023-04-26T04:37:19.876Z,37.18
2023-04-26T04:38:19.972Z,37.15
2023-04-26T04:39:20.051Z,37.13
2023-04-26T04:40:20.132Z,37.12
2023-04-26T04:41:20.232Z,37.10
2023-04-26T04:42:20.305Z,37.08
2023-04-26T04:43:20.381Z,37.07
2023-04-26T04:44:20.470Z,37.06
2023-04-26T04:45:20.562Z,37.05
2023-04-26T04:46:20.650Z,37.02
2023-04-26T04:47:20.696Z,37.01
2023-04-26T04:48:20.772Z,37.01
2023-04-26T04:49:20.896Z,36.97
2023-04-26T04:50:20.971Z,36.96
2023-04-26T04:51:21.046Z,36.95
2023-04-26T04:52:21.110Z,36.95
2023-04-26T04:53:21.196Z,37.00
2023-04-26T04:54:21.275Z,36.97
2023-04-26T04:55:21.395Z,36.98
2023-04-26T04:56:21.492Z,36.95
2023-04-26T04:57:21.565Z,36.96
2023-04-26T04:58:21.661Z,36.96
2023-04-26T04:59:21.732Z,36.98
2023-04-26T05:00:21.805Z,36.95
2023-04-26T05:01:28.367Z,36.95
2023-04-26T05:02:22.001Z,36.97
2023-04-26T05:03:22.161Z,36.97
2023-04-26T05:04:22.341Z,36.96
2023-04-26T05:05:22.225Z,36.96
2023-04-26T05:06:22.302Z,36.97
2023-04-26T05:07:24.367Z,36.94
2023-04-26T05:08:22.463Z,36.95
2023-04-26T05:09:22.545Z,36.93
2023-04-26T05:10:22.628Z,36.94
2023-04-26T05:11:22.696Z,36.94
2023-04-26T05:12:22.788Z,36.91
2023-04-26T05:13:22.912Z,36.90
2023-04-26T05:14:22.950Z,36.90
2023-04-26T05:15:23.026Z,36.90
2023-04-26T05:16:23.153Z,36.91
2023-04-26T05:17:23.213Z,36.91
2023-04-26T05:18:23.234Z,36.91
2023-04-26T05:19:23.310Z,36.90
2023-04-26T05:20:23.444Z,36.91
2023-04-26T05:21:23.480Z,36.88
2023-04-26T05:22:23.575Z,36.88
2023-04-26T05:23:23.663Z,36.88
2023-04-26T05:24:23.766Z,36.88
2023-04-26T05:25:23.813Z,36.88
2023-04-26T05:26:23.894Z,36.88
2023-04-26T05:27:23.987Z,36.87
2023-04-26T05:28:24.056Z,36.86
2023-04-26T05:29:24.154Z,36.86
2023-04-26T05:30:24.231Z,36.87
2023-04-26T05:31:24.328Z,36.88
2023-04-26T05:32:30.374Z,36.86
2023-04-26T05:33:24.504Z,36.89
2023-04-26T05:34:24.567Z,36.86
2023-04-26T05:35:24.659Z,36.88
2023-04-26T05:36:24.727Z,36.84
2023-04-26T05:37:24.812Z,36.85
2023-04-26T05:38:24.889Z,36.83
2023-04-26T05:39:24.960Z,36.83
2023-04-26T05:40:25.081Z,36.83
2023-04-26T05:41:25.164Z,36.85
2023-04-26T05:42:25.241Z,36.86
2023-04-26T05:43:25.336Z,36.84
2023-04-26T05:44:25.404Z,36.85
2023-04-26T05:45:25.506Z,36.82
2023-04-26T05:46:25.686Z,36.81
2023-04-26T05:47:25.637Z,36.82
2023-04-26T05:48:25.722Z,36.83
2023-04-26T05:49:25.804Z,36.83
2023-04-26T05:50:25.861Z,36.82
2023-04-26T05:51:25.956Z,36.81
2023-04-26T05:52:26.062Z,36.80
2023-04-26T05:53:26.120Z,36.80
2023-04-26T05:54:26.223Z,36.79
2023-04-26T05:55:26.302Z,36.80
2023-04-26T05:56:26.389Z,36.80
2023-04-26T05:57:26.505Z,36.79
2023-04-26T05:58:26.515Z,36.81
2023-04-26T05:59:26.584Z,36.79
2023-04-26T06:00:26.656Z,36.79
2023-04-26T06:01:27.144Z,36.79
2023-04-26T06:02:26.919Z,36.84
2023-04-26T06:03:33.721Z,36.82
2023-04-26T06:04:27.436Z,36.83
2023-04-26T06:05:27.276Z,36.82
2023-04-26T06:06:27.186Z,36.81
2023-04-26T06:07:27.277Z,36.81
2023-04-26T06:08:27.360Z,36.82
2023-04-26T06:09:27.472Z,36.80
2023-04-26T06:10:27.548Z,36.81
2023-04-26T06:11:27.824Z,36.81
2023-04-26T06:12:27.841Z,36.82
2023-04-26T06:13:27.803Z,36.80
2023-04-26T06:14:30.671Z,36.81
2023-04-26T06:15:27.991Z,36.78
2023-04-26T06:16:28.127Z,36.80
2023-04-26T06:17:28.167Z,36.78
2023-04-26T06:18:28.247Z,36.79
2023-04-26T06:19:28.321Z,36.81
2023-04-26T06:20:28.396Z,36.81
2023-04-26T06:21:28.501Z,36.80
2023-04-26T06:22:28.530Z,36.80
2023-04-26T06:23:28.610Z,36.83
2023-04-26T06:24:28.710Z,36.79
2023-04-26T06:25:28.822Z,36.79
2023-04-26T06:26:28.901Z,36.83
2023-04-26T06:27:29.052Z,36.80
2023-04-26T06:28:29.066Z,36.81
2023-04-26T06:29:29.176Z,36.80
2023-04-26T06:30:29.234Z,36.82
2023-04-26T06:31:29.356Z,36.80
2023-04-26T06:32:29.383Z,36.81
2023-04-26T06:33:29.509Z,36.83
2023-04-26T06:34:35.537Z,36.83
2023-04-26T06:35:29.626Z,36.85
2023-04-26T06:36:29.758Z,36.84
2023-04-26T06:37:29.806Z,36.86
2023-04-26T06:38:29.892Z,36.82
2023-04-26T06:39:29.980Z,36.83
2023-04-26T06:40:30.029Z,36.83
2023-04-26T06:41:30.108Z,36.81
2023-04-26T06:42:30.196Z,36.84
2023-04-26T06:43:30.286Z,36.83
2023-04-26T06:44:30.374Z,36.83
2023-04-26T06:45:30.471Z,36.82
2023-04-26T06:46:30.604Z,36.81
2023-04-26T06:47:30.713Z,36.81
2023-04-26T06:48:30.714Z,36.81
2023-04-26T06:49:30.804Z,36.83
2023-04-26T06:50:30.901Z,36.78
2023-04-26T06:51:30.963Z,36.82
2023-04-26T06:52:31.081Z,36.80
2023-04-26T06:53:31.106Z,36.81
2023-04-26T06:54:31.208Z,36.83
2023-04-26T06:55:32.206Z,36.80
2023-04-26T06:56:32.281Z,36.80
2023-04-26T06:57:31.434Z,36.77
2023-04-26T06:58:31.556Z,36.77
2023-04-26T06:59:32.418Z,36.78
2023-04-26T07:00:31.788Z,36.78
2023-04-26T07:01:31.829Z,36.78
2023-04-26T07:02:31.918Z,36.77
2023-04-26T07:03:32.065Z,36.77
2023-04-26T07:04:32.236Z,36.75
2023-04-26T07:05:38.116Z,36.75
2023-04-26T07:06:32.207Z,36.77
2023-04-26T07:07:32.307Z,36.75
2023-04-26T07:08:32.368Z,36.64
2023-04-26T07:09:32.463Z,36.59
2023-04-26T07:10:33.978Z,36.03
2023-04-26T07:11:32.644Z,35.92
2023-04-26T07:12:32.709Z,35.58
2023-04-26T07:13:32.902Z,35.55
2023-04-26T07:14:32.878Z,35.29
2023-04-26T07:15:33.011Z,35.55
2023-04-26T07:16:33.073Z,35.68
2023-04-26T07:17:33.170Z,35.84
2023-04-26T07:18:33.166Z,35.76
2023-04-26T07:19:33.237Z,35.83
2023-04-26T07:20:33.314Z,35.97
2023-04-26T07:21:33.429Z,36.12
2023-04-26T07:22:33.535Z,36.22
2023-04-26T07:23:33.585Z,36.32
2023-04-26T07:24:33.669Z,36.44
2023-04-26T07:25:33.734Z,36.45
2023-04-26T07:26:33.812Z,36.61
2023-04-26T07:27:33.909Z,36.65
2023-04-26T07:28:33.974Z,36.68
2023-04-26T07:29:34.039Z,36.72
2023-04-26T07:30:34.121Z,36.74
2023-04-26T07:31:34.208Z,36.74
2023-04-26T07:32:34.367Z,36.80
2023-04-26T07:33:34.497Z,36.85
2023-04-26T07:34:34.453Z,36.88
2023-04-26T07:35:34.523Z,36.94
2023-04-26T07:36:40.598Z,36.97
2023-04-26T07:37:34.669Z,37.06
2023-04-26T07:38:34.768Z,37.06
2023-04-26T07:39:34.841Z,37.10
2023-04-26T07:40:34.899Z,37.15
2023-04-26T07:41:34.989Z,37.18
2023-04-26T07:42:35.039Z,37.22
2023-04-26T07:43:35.134Z,37.29
2023-04-26T07:44:35.212Z,37.37
2023-04-26T07:45:35.292Z,37.35
2023-04-26T07:46:35.375Z,37.38
2023-04-26T07:47:35.486Z,37.41
2023-04-26T07:48:35.519Z,37.41
2023-04-26T07:49:35.663Z,37.39
2023-04-26T07:50:35.728Z,37.43
2023-04-26T07:51:35.784Z,37.46
2023-04-26T07:52:35.818Z,37.45
2023-04-26T07:53:35.922Z,37.50
2023-04-26T07:54:35.992Z,37.51
2023-04-26T07:55:36.074Z,37.52
2023-04-26T07:56:36.149Z,37.52
2023-04-26T07:57:36.239Z,37.52
2023-04-26T07:58:36.303Z,37.60
2023-04-26T07:59:36.376Z,37.67
2023-04-26T08:00:36.491Z,37.78
2023-04-26T08:01:36.567Z,37.85
2023-04-26T08:02:44.580Z,37.87
2023-04-26T08:03:36.922Z,37.90
2023-04-26T08:04:36.887Z,37.93
2023-04-26T08:05:37.261Z,37.97
2023-04-26T08:06:36.982Z,37.99
2023-04-26T08:07:43.033Z,38.01
2023-04-26T08:08:37.136Z,38.07
2023-04-26T08:09:37.210Z,38.10
2023-04-26T08:10:37.292Z,38.11
2023-04-26T08:11:37.451Z,38.03
2023-04-26T08:12:37.478Z,38.06
2023-04-26T08:13:37.552Z,38.07
2023-04-26T08:14:37.617Z,38.08
2023-04-26T08:15:37.693Z,38.09
2023-04-26T08:16:37.785Z,38.08
2023-04-26T08:17:37.887Z,38.07
2023-04-26T08:18:37.967Z,38.01
2023-04-26T08:19:37.988Z,38.02
2023-04-26T08:20:38.060Z,38.00
2023-04-26T08:21:38.175Z,37.98
2023-04-26T08:22:38.253Z,37.99
2023-04-26T08:23:39.050Z,37.99
2023-04-26T08:24:38.464Z,38.04
2023-04-26T08:25:38.516Z,38.03
2023-04-26T08:26:38.597Z,38.03
2023-04-26T08:27:38.673Z,38.01
2023-04-26T08:28:38.748Z,38.08
2023-04-26T08:29:38.841Z,38.09
2023-04-26T08:30:38.949Z,38.13
2023-04-26T08:31:39.074Z,38.20
2023-04-26T08:32:39.096Z,38.13
2023-04-26T08:33:39.169Z,38.19
2023-04-26T08:34:39.277Z,38.19
2023-04-26T08:35:39.344Z,37.64
2023-04-26T08:36:39.445Z,37.91
2023-04-26T08:37:39.522Z,37.08
2023-04-26T08:38:45.567Z,36.87
2023-04-26T08:39:39.673Z,36.39
2023-04-26T08:40:39.750Z,36.73
2023-04-26T08:41:39.844Z,36.81
2023-04-26T08:42:39.944Z,36.69
2023-04-26T08:43:39.997Z,36.67
2023-04-26T08:44:40.079Z,36.71
2023-04-26T08:45:40.165Z,36.80
2023-04-26T08:46:40.403Z,36.87
2023-04-26T08:47:40.362Z,36.90
2023-04-26T08:48:40.428Z,36.95
2023-04-26T08:49:40.496Z,36.99
2023-04-26T08:50:40.585Z,37.05
2023-04-26T08:51:40.625Z,37.08
2023-04-26T08:52:40.703Z,37.09
2023-04-26T08:53:40.788Z,37.13
2023-04-26T08:54:40.889Z,37.17
2023-04-26T08:55:40.952Z,37.20
2023-04-26T08:56:41.032Z,37.23
2023-04-26T08:57:41.107Z,37.29
2023-04-26T08:58:41.184Z,37.33
2023-04-26T08:59:41.295Z,37.40
2023-04-26T09:00:41.370Z,37.46
2023-04-26T09:01:41.474Z,37.50
2023-04-26T09:02:41.580Z,37.51
2023-04-26T09:03:41.775Z,37.55
2023-04-26T09:04:41.953Z,37.56
2023-04-26T09:05:41.795Z,37.63
2023-04-26T09:06:41.859Z,37.68
2023-04-26T09:07:41.938Z,37.73
2023-04-26T09:08:42.006Z,37.77
2023-04-26T09:09:48.117Z,37.78
2023-04-26T09:10:42.222Z,37.83
2023-04-26T09:11:42.330Z,37.84
2023-04-26T09:12:42.341Z,37.88
2023-04-26T09:13:42.447Z,37.88
2023-04-26T09:14:42.544Z,37.86
2023-04-26T09:15:42.636Z,37.92
2023-04-26T09:16:42.816Z,37.96
2023-04-26T09:17:42.796Z,37.98
2023-04-26T09:18:42.850Z,37.99
2023-04-26T09:19:42.961Z,38.03
2023-04-26T09:20:43.022Z,38.02
2023-04-26T09:21:43.123Z,37.99
2023-04-26T09:22:43.212Z,37.96
2023-04-26T09:23:43.284Z,37.96
2023-04-26T09:24:43.354Z,37.98
2023-04-26T09:25:43.444Z,37.96
2023-04-26T09:26:43.534Z,37.98
2023-04-26T09:27:43.623Z,37.94
2023-04-26T09:28:43.702Z,37.95
2023-04-26T09:29:43.774Z,37.87
2023-04-26T09:30:43.853Z,37.87
2023-04-26T09:31:44.835Z,37.85
2023-04-26T09:32:44.064Z,37.85
2023-04-26T09:33:44.089Z,37.82
2023-04-26T09:34:44.172Z,37.84
2023-04-26T09:35:44.242Z,37.83
2023-04-26T09:36:44.335Z,37.85
2023-04-26T09:37:57.552Z,37.85
2023-04-26T09:38:44.519Z,37.86
2023-04-26T09:39:44.553Z,37.85
2023-04-26T09:40:50.631Z,37.86
2023-04-26T09:41:44.738Z,37.94
2023-04-26T09:42:44.808Z,37.86
2023-04-26T09:43:44.894Z,37.88
2023-04-26T09:44:44.986Z,37.85
2023-04-26T09:45:45.075Z,37.84
2023-04-26T09:46:45.204Z,37.85
2023-04-26T09:47:45.262Z,37.86
2023-04-26T09:48:46.616Z,37.86
2023-04-26T09:49:45.468Z,37.87
2023-04-26T09:50:45.543Z,37.87
2023-04-26T09:51:45.603Z,37.86
2023-04-26T09:52:45.685Z,37.86
2023-04-26T09:53:45.774Z,37.83
2023-04-26T09:54:45.840Z,37.81
2023-04-26T09:55:45.939Z,37.76
2023-04-26T09:56:46.057Z,37.74
2023-04-26T09:57:46.106Z,37.70
2023-04-26T09:58:46.232Z,37.66
2023-04-26T09:59:46.306Z,37.71
2023-04-26T10:00:46.522Z,37.72
2023-04-26T10:01:46.534Z,37.75
2023-04-26T10:02:46.558Z,37.72
2023-04-26T10:03:46.858Z,37.77
2023-04-26T10:04:46.771Z,37.77
2023-04-26T10:05:46.898Z,37.78
2023-04-26T10:06:46.949Z,37.83
2023-04-26T10:07:47.033Z,37.83
2023-04-26T10:08:47.066Z,37.85
2023-04-26T10:09:47.118Z,37.85
2023-04-26T10:10:47.195Z,37.82
2023-04-26T10:11:53.264Z,37.77
2023-04-26T10:12:47.344Z,37.77
2023-04-26T10:13:47.442Z,37.74
2023-04-26T10:14:47.489Z,37.66
2023-04-26T10:15:47.578Z,34.43
2023-04-26T10:16:47.718Z,33.55
2023-04-26T10:17:49.577Z,33.65
2023-04-26T10:18:47.842Z,33.84
2023-04-26T10:19:47.956Z,34.27
2023-04-26T10:20:48.004Z,34.96
2023-04-26T10:21:48.095Z,35.43
2023-04-26T10:22:48.170Z,35.44
2023-04-26T10:23:48.286Z,35.46
2023-04-26T10:24:48.356Z,35.47
2023-04-26T10:25:48.428Z,35.53
2023-04-26T10:26:48.478Z,35.65
2023-04-26T10:27:48.529Z,35.72
2023-04-26T10:28:49.168Z,35.80
2023-04-26T10:29:48.724Z,35.83
2023-04-26T10:30:48.908Z,35.64
2023-04-26T10:31:48.942Z,35.80
2023-04-26T10:32:48.991Z,35.92
2023-04-26T10:33:49.038Z,35.90
2023-04-26T10:34:49.124Z,35.95
2023-04-26T10:35:49.220Z,35.90
2023-04-26T10:36:49.340Z,35.90
2023-04-26T10:37:49.366Z,35.96
2023-04-26T10:38:49.445Z,35.97
2023-04-26T10:39:49.511Z,35.98
2023-04-26T10:40:49.600Z,35.99
2023-04-26T10:41:49.703Z,36.08
2023-04-26T10:42:56.018Z,36.09
2023-04-26T10:43:49.858Z,36.18
2023-04-26T10:44:49.932Z,36.17
2023-04-26T10:45:50.019Z,36.20
2023-04-26T10:46:50.077Z,36.14
2023-04-26T10:47:50.173Z,36.26
2023-04-26T10:48:50.269Z,36.29
2023-04-26T10:49:50.321Z,36.28
2023-04-26T10:50:50.370Z,36.30
2023-04-26T10:51:50.457Z,36.37
2023-04-26T10:52:50.533Z,36.32
2023-04-26T10:53:50.860Z,36.41
2023-04-26T10:54:50.717Z,36.45
2023-04-26T10:55:50.762Z,36.44
2023-04-26T10:56:50.881Z,36.48
2023-04-26T10:57:50.953Z,36.54
2023-04-26T10:58:51.032Z,36.59
2023-04-26T10:59:54.761Z,36.72
2023-04-26T11:00:51.170Z,36.80
2023-04-26T11:01:51.326Z,36.84
2023-04-26T11:02:52.905Z,36.91
2023-04-26T11:03:51.708Z,36.94
2023-04-26T11:04:51.577Z,37.02
2023-04-26T11:05:51.628Z,37.04
2023-04-26T11:06:51.690Z,37.05
2023-04-26T11:07:51.765Z,37.03
2023-04-26T11:08:52.055Z,36.99
2023-04-26T11:09:51.893Z,37.01
2023-04-26T11:10:51.996Z,37.02
2023-04-26T11:11:52.057Z,36.96
2023-04-26T11:12:52.114Z,36.97
2023-04-26T11:13:58.187Z,36.95
2023-04-26T11:14:52.308Z,36.99
2023-04-26T11:15:52.617Z,36.98
2023-04-26T11:16:52.503Z,37.04
2023-04-26T11:17:52.582Z,36.99
2023-04-26T11:18:52.803Z,37.01
2023-04-26T11:19:52.702Z,37.00
2023-04-26T11:20:52.782Z,36.99
2023-04-26T11:21:54.546Z,37.05
2023-04-26T11:22:52.963Z,36.96
2023-04-26T11:23:53.069Z,37.09
2023-04-26T11:24:54.002Z,37.11
2023-04-26T11:25:53.219Z,37.11
2023-04-26T11:26:53.340Z,37.01
2023-04-26T11:27:53.369Z,37.13
2023-04-26T11:28:53.755Z,37.18
2023-04-26T11:29:53.539Z,37.17
2023-04-26T11:30:53.624Z,37.18
2023-04-26T11:31:53.751Z,37.13
2023-04-26T11:32:53.820Z,37.18
2023-04-26T11:33:53.949Z,37.18
2023-04-26T11:34:53.981Z,37.12
2023-04-26T11:35:54.062Z,37.22
2023-04-26T11:36:54.122Z,37.23
2023-04-26T11:37:54.204Z,37.30
2023-04-26T11:38:54.521Z,37.26
2023-04-26T11:39:54.350Z,37.32
2023-04-26T11:40:54.456Z,37.38
2023-04-26T11:41:54.509Z,37.40
2023-04-26T11:42:54.592Z,37.41
2023-04-26T11:43:54.716Z,37.39
2023-04-26T11:45:00.728Z,37.37
2023-04-26T11:45:54.842Z,37.45
2023-04-26T11:46:54.962Z,37.48
2023-04-26T11:47:55.070Z,37.50
2023-04-26T11:48:55.402Z,37.51
2023-04-26T11:49:55.164Z,37.52
2023-04-26T11:50:55.248Z,37.49
2023-04-26T11:51:55.329Z,37.49
2023-04-26T11:52:55.436Z,37.51
2023-04-26T11:53:55.483Z,37.43
2023-04-26T11:54:55.565Z,37.47
2023-04-26T11:55:55.644Z,37.36
2023-04-26T11:56:55.714Z,37.41
2023-04-26T11:57:55.827Z,37.37
2023-04-26T11:58:56.202Z,37.35
2023-04-26T11:59:55.997Z,37.30
2023-04-26T12:00:56.073Z,37.35
2023-04-26T12:01:56.175Z,37.34
2023-04-26T12:02:56.360Z,37.38
2023-04-26T12:03:56.623Z,37.26
2023-04-26T12:04:56.675Z,37.30
2023-04-26T12:05:56.430Z,37.29
2023-04-26T12:06:56.506Z,37.25
2023-04-26T12:07:56.574Z,37.20
2023-04-26T12:08:56.708Z,37.23
2023-04-26T12:09:58.070Z,37.21
2023-04-26T12:10:56.790Z,37.23
2023-04-26T12:11:56.862Z,37.22
2023-04-26T12:12:57.137Z,37.22
2023-04-26T12:13:57.033Z,37.24
2023-04-26T12:14:57.131Z,37.25
2023-04-26T12:16:07.200Z,37.26
2023-04-26T12:16:57.286Z,37.30
2023-04-26T12:17:57.374Z,37.26
2023-04-26T12:18:57.486Z,37.22
2023-04-26T12:19:57.537Z,37.15
2023-04-26T12:20:57.641Z,37.09
2023-04-26T12:21:57.678Z,37.10
2023-04-26T12:22:57.764Z,37.03
2023-04-26T12:23:57.860Z,37.04
2023-04-26T12:24:57.962Z,36.98
2023-04-26T12:25:58.164Z,37.04
2023-04-26T12:27:00.316Z,37.16
2023-04-26T12:27:58.169Z,37.15
2023-04-26T12:28:58.239Z,37.22
2023-04-26T12:29:58.320Z,36.14
2023-04-26T12:30:58.527Z,31.47
2023-04-26T12:31:58.734Z,30.77
2023-04-26T12:33:09.217Z,31.22
2023-04-26T12:33:58.662Z,29.86
2023-04-26T12:34:58.737Z,29.71
2023-04-26T12:35:58.846Z,29.92
2023-04-26T12:36:58.957Z,30.24
2023-04-26T12:37:58.989Z,29.83
2023-04-26T12:38:59.053Z,29.51
2023-04-26T12:39:59.117Z,29.93
2023-04-26T12:40:59.194Z,29.80
2023-04-26T12:41:59.272Z,30.59
2023-04-26T12:42:59.368Z,29.99
2023-04-26T12:43:59.414Z,29.16
2023-04-26T12:44:59.519Z,29.14
2023-04-26T12:45:59.566Z,28.89
2023-04-26T12:47:05.594Z,28.71
2023-04-26T12:47:59.727Z,29.27
2023-04-26T12:48:59.780Z,29.50
2023-04-26T12:49:59.853Z,29.42
2023-04-26T12:50:59.938Z,28.73
2023-04-26T12:52:00.012Z,28.94
2023-04-26T12:53:00.133Z,29.18
2023-04-26T12:54:00.199Z,28.21